sensor_id;sensor_type;location;lat;lon;timestamp;pressure;altitude;pressure_sealevel;temperature;humidity
67015;BME280;1033;52.560;13.374;2022-12-24T00:01:38;99845.03;;;5.75;100.00
67015;BME280;1033;52.560;13.374;2022-12-24T00:04:07;99846.47;;;5.71;100.00
67015;BME280;1033;52.560;13.374;2022-12-24T00:06:36;99844.16;;;5.67;100.00
67015;BME280;1033;52.560;13.374;2022-12-24T00:09:07;99845.75;;;5.62;100.00
67015;BME280;1033;52.560;13.374;2022-12-24T00:11:38;99838.75;;;5.61;100.00
67015;BME280;1033;52.560;13.374;2022-12-24T00:14:07;99846.59;;;5.62;100.00
67015;BME280;1033;52.560;13.374;2022-12-24T00:16:36;99841.03;;;5.64;100.00
67015;BME280;1033;52.560;13.374;2022-12-24T00:19:05;99845.97;;;5.60;100.00
67015;BME280;1033;52.560;13.374;2022-12-24T00:21:35;99841.03;;;5.64;100.00
67015;BME280;1033;52.560;13.374;2022-12-24T00:24:06;99842.06;;;5.63;100.00
67015;BME280;1033;52.560;13.374;2022-12-24T00:26:35;99835.25;;;5.60;100.00
67015;BME280;1033;52.560;13.374;2022-12-24T00:29:04;99842.91;;;5.63;100.00
67015;BME280;1033;52.560;13.374;2022-12-24T00:31:33;99842.47;;;5.60;100.00
67015;BME280;1033;52.560;13.374;2022-12-24T00:34:02;99839.53;;;5.55;100.00
67015;BME280;1033;52.560;13.374;2022-12-24T00:36:31;99845.91;;;5.54;100.00
67015;BME280;1033;52.560;13.374;2022-12-24T00:39:01;99839.13;;;5.58;100.00
67015;BME280;1033;52.560;13.374;2022-12-24T00:41:31;99834.78;;;5.57;100.00
67015;BME280;1033;52.560;13.374;2022-12-24T00:44:02;99837.00;;;5.47;100.00
67015;BME280;1033;52.560;13.374;2022-12-24T00:46:33;99845.25;;;5.45;100.00
67015;BME280;1033;52.560;13.374;2022-12-24T00:49:03;99851.44;;;5.46;100.00
67015;BME280;1033;52.560;13.374;2022-12-24T00:51:33;99856.22;;;5.50;100.00
67015;BME280;1033;52.560;13.374;2022-12-24T00:54:04;99858.50;;;5.53;100.00
67015;BME280;1033;52.560;13.374;2022-12-24T00:56:35;99860.56;;;5.51;100.00
67015;BME280;1033;52.560;13.374;2022-12-24T00:59:04;99854.31;;;5.44;100.00
67015;BME280;1033;52.560;13.374;2022-12-24T01:01:33;99864.84;;;5.46;100.00
67015;BME280;1033;52.560;13.374;2022-12-24T01:04:03;99864.63;;;5.47;100.00
67015;BME280;1033;52.560;13.374;2022-12-24T01:06:50;99870.66;;;5.49;100.00
67015;BME280;1033;52.560;13.374;2022-12-24T01:09:19;99873.34;;;5.49;100.00
67015;BME280;1033;52.560;13.374;2022-12-24T01:11:50;99877.44;;;5.45;100.00
67015;BME280;1033;52.560;13.374;2022-12-24T01:14:19;99872.50;;;5.49;100.00
67015;BME280;1033;52.560;13.374;2022-12-24T01:16:48;99875.59;;;5.46;100.00
67015;BME280;1033;52.560;13.374;2022-12-24T01:19:18;99883.44;;;5.47;100.00
67015;BME280;1033;52.560;13.374;2022-12-24T01:21:47;99885.75;;;5.50;100.00
67015;BME280;1033;52.560;13.374;2022-12-24T01:24:16;99881.63;;;5.54;100.00
67015;BME280;1033;52.560;13.374;2022-12-24T01:26:46;99884.72;;;5.51;100.00
67015;BME280;1033;52.560;13.374;2022-12-24T01:29:16;99888.34;;;5.44;100.00
67015;BME280;1033;52.560;13.374;2022-12-24T01:31:48;99884.47;;;5.46;100.00
67015;BME280;1033;52.560;13.374;2022-12-24T01:34:17;99886.50;;;5.44;100.00
67015;BME280;1033;52.560;13.374;2022-12-24T01:36:46;99891.47;;;5.47;100.00
67015;BME280;1033;52.560;13.374;2022-12-24T01:39:16;99882.75;;;5.39;100.00
67015;BME280;1033;52.560;13.374;2022-12-24T01:41:45;99889.13;;;5.38;100.00
67015;BME280;1033;52.560;13.374;2022-12-24T01:44:34;99886.91;;;5.41;100.00
67015;BME280;1033;52.560;13.374;2022-12-24T01:47:08;99893.78;;;5.50;100.00
67015;BME280;1033;52.560;13.374;2022-12-24T01:49:43;99895.81;;;5.48;100.00
67015;BME280;1033;52.560;13.374;2022-12-24T01:52:15;99902.16;;;5.41;100.00
67015;BME280;1033;52.560;13.374;2022-12-24T01:54:48;99907.53;;;5.41;100.00
67015;BME280;1033;52.560;13.374;2022-12-24T01:57:21;99915.00;;;5.45;100.00
67015;BME280;1033;52.560;13.374;2022-12-24T01:59:56;99912.19;;;5.53;100.00
67015;BME280;1033;52.560;13.374;2022-12-24T02:02:27;99921.25;;;5.52;100.00
67015;BME280;1033;52.560;13.374;2022-12-24T02:05:01;99919.53;;;5.45;100.00
67015;BME280;1033;52.560;13.374;2022-12-24T02:07:32;99920.63;;;5.50;100.00
67015;BME280;1033;52.560;13.374;2022-12-24T02:10:02;99924.13;;;5.51;100.00
67015;BME280;1033;52.560;13.374;2022-12-24T02:12:34;99934.47;;;5.54;100.00
67015;BME280;1033;52.560;13.374;2022-12-24T02:15:11;99940.69;;;5.54;100.00
67015;BME280;1033;52.560;13.374;2022-12-24T02:17:48;99948.88;;;5.46;100.00
67015;BME280;1033;52.560;13.374;2022-12-24T02:20:42;99939.97;;;5.46;100.00
67015;BME280;1033;52.560;13.374;2022-12-24T02:26:26;99952.63;;;5.52;100.00
67015;BME280;1033;52.560;13.374;2022-12-24T02:29:18;99953.44;;;5.52;100.00
67015;BME280;1033;52.560;13.374;2022-12-24T02:31:59;99957.44;;;5.56;100.00
67015;BME280;1033;52.560;13.374;2022-12-24T02:34:32;99959.84;;;5.51;100.00
67015;BME280;1033;52.560;13.374;2022-12-24T02:37:09;99965.09;;;5.59;100.00
67015;BME280;1033;52.560;13.374;2022-12-24T02:39:42;99973.06;;;5.53;100.00
67015;BME280;1033;52.560;13.374;2022-12-24T02:42:19;99981.00;;;5.61;100.00
67015;BME280;1033;52.560;13.374;2022-12-24T02:44:54;99972.94;;;5.61;100.00
67015;BME280;1033;52.560;13.374;2022-12-24T02:47:27;99977.50;;;5.60;100.00
67015;BME280;1033;52.560;13.374;2022-12-24T02:50:02;99976.25;;;5.63;100.00
67015;BME280;1033;52.560;13.374;2022-12-24T02:52:34;99983.44;;;5.56;100.00
67015;BME280;1033;52.560;13.374;2022-12-24T02:55:06;99988.97;;;5.54;100.00
67015;BME280;1033;52.560;13.374;2022-12-24T02:57:47;99989.09;;;5.67;100.00
67015;BME280;1033;52.560;13.374;2022-12-24T03:00:22;99993.00;;;5.65;100.00
67015;BME280;1033;52.560;13.374;2022-12-24T03:03:05;99993.44;;;5.68;100.00
67015;BME280;1033;52.560;13.374;2022-12-24T03:05:45;99989.94;;;5.68;100.00
67015;BME280;1033;52.560;13.374;2022-12-24T03:08:20;99999.41;;;5.64;100.00
67015;BME280;1033;52.560;13.374;2022-12-24T03:10:59;100000.16;;;5.58;100.00
67015;BME280;1033;52.560;13.374;2022-12-24T03:13:30;100007.25;;;5.65;100.00
67015;BME280;1033;52.560;13.374;2022-12-24T03:16:01;99995.25;;;5.61;100.00
67015;BME280;1033;52.560;13.374;2022-12-24T03:18:35;100002.66;;;5.59;100.00
67015;BME280;1033;52.560;13.374;2022-12-24T03:21:08;100001.38;;;5.55;100.00
67015;BME280;1033;52.560;13.374;2022-12-24T03:23:38;100001.63;;;5.60;100.00
67015;BME280;1033;52.560;13.374;2022-12-24T03:26:10;100004.25;;;5.54;100.00
67015;BME280;1033;52.560;13.374;2022-12-24T03:28:41;100008.03;;;5.59;100.00
67015;BME280;1033;52.560;13.374;2022-12-24T03:31:11;100015.81;;;5.54;100.00
67015;BME280;1033;52.560;13.374;2022-12-24T03:33:42;100020.53;;;5.52;100.00
67015;BME280;1033;52.560;13.374;2022-12-24T03:36:12;100023.69;;;5.56;100.00
67015;BME280;1033;52.560;13.374;2022-12-24T03:38:41;100026.56;;;5.54;100.00
67015;BME280;1033;52.560;13.374;2022-12-24T03:41:11;100026.69;;;5.46;100.00
67015;BME280;1033;52.560;13.374;2022-12-24T03:43:40;100032.56;;;5.56;100.00
67015;BME280;1033;52.560;13.374;2022-12-24T03:46:09;100029.25;;;5.54;100.00
67015;BME280;1033;52.560;13.374;2022-12-24T03:48:38;100039.00;;;5.62;100.00
67015;BME280;1033;52.560;13.374;2022-12-24T03:51:16;100035.78;;;5.52;100.00
67015;BME280;1033;52.560;13.374;2022-12-24T03:53:46;100046.75;;;5.50;100.00
67015;BME280;1033;52.560;13.374;2022-12-24T03:56:15;100048.16;;;5.46;100.00
67015;BME280;1033;52.560;13.374;2022-12-24T03:58:44;100053.38;;;5.54;100.00
67015;BME280;1033;52.560;13.374;2022-12-24T04:01:14;100059.72;;;5.47;100.00
67015;BME280;1033;52.560;13.374;2022-12-24T04:03:43;100060.78;;;5.52;100.00
67015;BME280;1033;52.560;13.374;2022-12-24T04:06:15;100067.38;;;5.50;100.00
67015;BME280;1033;52.560;13.374;2022-12-24T04:08:45;100064.13;;;5.54;100.00
67015;BME280;1033;52.560;13.374;2022-12-24T04:11:15;100066.16;;;5.52;100.00
67015;BME280;1033;52.560;13.374;2022-12-24T04:13:45;100059.16;;;5.51;100.00
67015;BME280;1033;52.560;13.374;2022-12-24T04:16:15;100051.84;;;5.45;100.00
67015;BME280;1033;52.560;13.374;2022-12-24T04:18:44;100047.09;;;5.47;100.00
67015;BME280;1033;52.560;13.374;2022-12-24T04:21:15;100055.53;;;5.44;100.00
67015;BME280;1033;52.560;13.374;2022-12-24T04:23:44;100070.63;;;5.45;100.00
67015;BME280;1033;52.560;13.374;2022-12-24T04:26:14;100070.63;;;5.45;100.00
67015;BME280;1033;52.560;13.374;2022-12-24T04:28:43;100069.63;;;5.46;100.00
67015;BME280;1033;52.560;13.374;2022-12-24T04:31:14;100078.28;;;5.48;100.00
67015;BME280;1033;52.560;13.374;2022-12-24T04:33:43;100078.38;;;5.55;100.00
67015;BME280;1033;52.560;13.374;2022-12-24T04:36:15;100085.97;;;5.51;100.00
67015;BME280;1033;52.560;13.374;2022-12-24T04:38:46;100082.91;;;5.54;100.00
67015;BME280;1033;52.560;13.374;2022-12-24T04:41:17;100091.97;;;5.53;100.00
67015;BME280;1033;52.560;13.374;2022-12-24T04:43:51;100099.75;;;5.48;100.00
67015;BME280;1033;52.560;13.374;2022-12-24T04:46:23;100097.06;;;5.48;100.00
67015;BME280;1033;52.560;13.374;2022-12-24T04:48:53;100104.19;;;5.56;100.00
67015;BME280;1033;52.560;13.374;2022-12-24T04:51:24;100111.97;;;5.51;100.00
67015;BME280;1033;52.560;13.374;2022-12-24T04:53:54;100109.09;;;5.52;100.00
67015;BME280;1033;52.560;13.374;2022-12-24T04:56:25;100105.94;;;5.63;100.00
67015;BME280;1033;52.560;13.374;2022-12-24T04:58:55;100109.72;;;5.69;100.00
67015;BME280;1033;52.560;13.374;2022-12-24T05:01:26;100115.00;;;5.62;100.00
67015;BME280;1033;52.560;13.374;2022-12-24T05:03:56;100122.41;;;5.60;100.00
67015;BME280;1033;52.560;13.374;2022-12-24T05:06:29;100119.72;;;5.60;100.00
67015;BME280;1033;52.560;13.374;2022-12-24T05:08:59;100122.78;;;5.57;100.00
67015;BME280;1033;52.560;13.374;2022-12-24T05:11:29;100119.16;;;5.65;100.00
67015;BME280;1033;52.560;13.374;2022-12-24T05:13:59;100116.47;;;5.65;100.00
67015;BME280;1033;52.560;13.374;2022-12-24T05:16:28;100127.00;;;5.66;100.00
67015;BME280;1033;52.560;13.374;2022-12-24T05:18:57;100117.75;;;5.69;100.00
67015;BME280;1033;52.560;13.374;2022-12-24T05:21:28;100124.09;;;5.61;100.00
67015;BME280;1033;52.560;13.374;2022-12-24T05:23:57;100122.59;;;5.59;100.00
67015;BME280;1033;52.560;13.374;2022-12-24T05:26:47;100124.13;;;5.68;100.00
67015;BME280;1033;52.560;13.374;2022-12-24T05:29:17;100116.44;;;5.80;100.00
67015;BME280;1033;52.560;13.374;2022-12-24T05:31:46;100120.97;;;5.79;100.00
67015;BME280;1033;52.560;13.374;2022-12-24T05:34:16;100120.53;;;5.76;100.00
67015;BME280;1033;52.560;13.374;2022-12-24T05:36:46;100120.25;;;5.71;100.00
67015;BME280;1033;52.560;13.374;2022-12-24T05:39:16;100127.94;;;5.74;100.00
67015;BME280;1033;52.560;13.374;2022-12-24T05:41:46;100119.59;;;5.68;100.00
67015;BME280;1033;52.560;13.374;2022-12-24T05:44:15;100123.84;;;5.78;100.00
67015;BME280;1033;52.560;13.374;2022-12-24T05:46:44;100129.78;;;5.73;100.00
67015;BME280;1033;52.560;13.374;2022-12-24T05:49:14;100139.31;;;5.76;100.00
67015;BME280;1033;52.560;13.374;2022-12-24T05:51:43;100139.41;;;5.67;100.00
67015;BME280;1033;52.560;13.374;2022-12-24T05:54:13;100144.97;;;5.81;100.00
67015;BME280;1033;52.560;13.374;2022-12-24T05:56:42;100139.06;;;5.71;100.00
67015;BME280;1033;52.560;13.374;2022-12-24T05:59:11;100142.94;;;5.68;100.00
67015;BME280;1033;52.560;13.374;2022-12-24T06:01:41;100152.47;;;5.71;100.00
67015;BME280;1033;52.560;13.374;2022-12-24T06:04:13;100156.00;;;5.71;100.00
67015;BME280;1033;52.560;13.374;2022-12-24T06:06:42;100159.31;;;5.73;100.00
67015;BME280;1033;52.560;13.374;2022-12-24T06:09:13;100163.47;;;5.76;100.00
67015;BME280;1033;52.560;13.374;2022-12-24T06:11:43;100161.88;;;5.81;100.00
67015;BME280;1033;52.560;13.374;2022-12-24T06:14:12;100160.16;;;5.74;100.00
67015;BME280;1033;52.560;13.374;2022-12-24T06:16:41;100163.00;;;5.72;100.00
67015;BME280;1033;52.560;13.374;2022-12-24T06:19:11;100173.56;;;5.74;100.00
67015;BME280;1033;52.560;13.374;2022-12-24T06:21:40;100181.16;;;5.70;100.00
67015;BME280;1033;52.560;13.374;2022-12-24T06:24:09;100180.94;;;5.86;100.00
67015;BME280;1033;52.560;13.374;2022-12-24T06:26:40;100181.72;;;5.95;100.00
67015;BME280;1033;52.560;13.374;2022-12-24T06:29:09;100189.94;;;5.79;100.00
67015;BME280;1033;52.560;13.374;2022-12-24T06:31:38;100189.19;;;5.85;100.00
67015;BME280;1033;52.560;13.374;2022-12-24T06:34:07;100199.94;;;5.85;100.00
67015;BME280;1033;52.560;13.374;2022-12-24T06:36:36;100203.09;;;5.74;100.00
67015;BME280;1033;52.560;13.374;2022-12-24T06:39:05;100207.34;;;5.83;100.00
67015;BME280;1033;52.560;13.374;2022-12-24T06:41:34;100205.31;;;5.85;100.00
67015;BME280;1033;52.560;13.374;2022-12-24T06:44:04;100208.66;;;5.87;100.00
67015;BME280;1033;52.560;13.374;2022-12-24T06:46:33;100212.00;;;5.89;100.00
67015;BME280;1033;52.560;13.374;2022-12-24T06:49:02;100204.94;;;5.88;100.00
67015;BME280;1033;52.560;13.374;2022-12-24T06:51:31;100212.81;;;5.89;100.00
67015;BME280;1033;52.560;13.374;2022-12-24T06:54:00;100213.66;;;5.90;100.00
67015;BME280;1033;52.560;13.374;2022-12-24T06:56:29;100212.00;;;5.89;100.00
67015;BME280;1033;52.560;13.374;2022-12-24T06:58:58;100213.44;;;5.77;100.00
67015;BME280;1033;52.560;13.374;2022-12-24T07:01:33;100219.59;;;5.71;100.00
67015;BME280;1033;52.560;13.374;2022-12-24T07:04:02;100226.31;;;5.81;100.00
67015;BME280;1033;52.560;13.374;2022-12-24T07:06:31;100227.44;;;5.87;100.00
67015;BME280;1033;52.560;13.374;2022-12-24T07:09:00;100225.13;;;5.84;100.00
67015;BME280;1033;52.560;13.374;2022-12-24T07:11:29;100232.50;;;5.82;100.00
67015;BME280;1033;52.560;13.374;2022-12-24T07:13:58;100233.91;;;5.78;100.00
67015;BME280;1033;52.560;13.374;2022-12-24T07:16:27;100247.72;;;5.75;100.00
67015;BME280;1033;52.560;13.374;2022-12-24T07:18:58;100256.06;;;5.94;100.00
67015;BME280;1033;52.560;13.374;2022-12-24T07:21:27;100265.41;;;5.98;100.00
67015;BME280;1033;52.560;13.374;2022-12-24T07:23:56;100264.94;;;6.09;100.00
67015;BME280;1033;52.560;13.374;2022-12-24T07:26:24;100280.50;;;5.99;100.00
67015;BME280;1033;52.560;13.374;2022-12-24T07:28:53;100275.97;;;6.00;100.00
67015;BME280;1033;52.560;13.374;2022-12-24T07:31:22;100279.41;;;5.94;100.00
67015;BME280;1033;52.560;13.374;2022-12-24T07:33:51;100281.81;;;5.89;100.00
67015;BME280;1033;52.560;13.374;2022-12-24T07:36:22;100284.09;;;5.92;100.00
67015;BME280;1033;52.560;13.374;2022-12-24T07:38:51;100278.94;;;5.90;100.00
67015;BME280;1033;52.560;13.374;2022-12-24T07:41:20;100279.44;;;5.86;100.00
67015;BME280;1033;52.560;13.374;2022-12-24T07:43:49;100279.44;;;5.86;100.00
67015;BME280;1033;52.560;13.374;2022-12-24T07:46:18;100279.75;;;5.91;100.00
67015;BME280;1033;52.560;13.374;2022-12-24T07:48:47;100288.91;;;5.82;100.00
67015;BME280;1033;52.560;13.374;2022-12-24T07:51:16;100294.56;;;5.87;100.00
67015;BME280;1033;52.560;13.374;2022-12-24T07:53:46;100302.31;;;5.82;100.00
67015;BME280;1033;52.560;13.374;2022-12-24T07:56:16;100308.72;;;5.81;100.00
67015;BME280;1033;52.560;13.374;2022-12-24T07:58:45;100305.81;;;5.90;100.00
67015;BME280;1033;52.560;13.374;2022-12-24T08:01:14;100301.44;;;6.04;100.00
67015;BME280;1033;52.560;13.374;2022-12-24T08:03:43;100302.16;;;5.98;100.00
67015;BME280;1033;52.560;13.374;2022-12-24T08:06:12;100302.56;;;5.95;100.00
67015;BME280;1033;52.560;13.374;2022-12-24T08:08:41;100309.22;;;5.99;100.00
67015;BME280;1033;52.560;13.374;2022-12-24T08:11:12;100306.97;;;6.02;100.00
67015;BME280;1033;52.560;13.374;2022-12-24T08:13:41;100307.16;;;6.01;100.00
67015;BME280;1033;52.560;13.374;2022-12-24T08:16:10;100312.25;;;5.96;100.00
67015;BME280;1033;52.560;13.374;2022-12-24T08:18:39;100312.53;;;6.01;100.00
67015;BME280;1033;52.560;13.374;2022-12-24T08:21:08;100317.16;;;6.07;100.00
67015;BME280;1033;52.560;13.374;2022-12-24T08:23:37;100319.66;;;6.08;100.00
67015;BME280;1033;52.560;13.374;2022-12-24T08:26:07;100317.06;;;6.00;100.00
67015;BME280;1033;52.560;13.374;2022-12-24T08:28:37;100318.28;;;5.98;100.00
67015;BME280;1033;52.560;13.374;2022-12-24T08:31:07;100315.69;;;5.90;100.00
67015;BME280;1033;52.560;13.374;2022-12-24T08:33:36;100325.78;;;6.02;100.00
67015;BME280;1033;52.560;13.374;2022-12-24T08:36:05;100332.72;;;5.97;100.00
67015;BME280;1033;52.560;13.374;2022-12-24T08:38:34;100332.72;;;5.97;100.00
67015;BME280;1033;52.560;13.374;2022-12-24T08:41:04;100331.81;;;6.04;100.00
67015;BME280;1033;52.560;13.374;2022-12-24T08:43:33;100332.44;;;6.06;100.00
67015;BME280;1033;52.560;13.374;2022-12-24T08:46:04;100336.41;;;5.96;100.00
67015;BME280;1033;52.560;13.374;2022-12-24T08:48:33;100342.34;;;5.91;100.00
67015;BME280;1033;52.560;13.374;2022-12-24T08:51:06;100341.91;;;6.02;100.00
67015;BME280;1033;52.560;13.374;2022-12-24T08:53:36;100348.94;;;6.03;100.00
67015;BME280;1033;52.560;13.374;2022-12-24T08:56:07;100353.38;;;6.11;100.00
67015;BME280;1033;52.560;13.374;2022-12-24T08:58:37;100348.09;;;6.03;100.00
67015;BME280;1033;52.560;13.374;2022-12-24T09:01:12;100346.16;;;6.11;100.00
67015;BME280;1033;52.560;13.374;2022-12-24T09:03:42;100349.47;;;6.28;100.00
67015;BME280;1033;52.560;13.374;2022-12-24T09:06:12;100357.97;;;6.32;100.00
67015;BME280;1033;52.560;13.374;2022-12-24T09:08:41;100350.22;;;6.22;100.00
67015;BME280;1033;52.560;13.374;2022-12-24T09:11:12;100354.06;;;6.34;100.00
67015;BME280;1033;52.560;13.374;2022-12-24T09:13:41;100371.25;;;6.33;100.00
67015;BME280;1033;52.560;13.374;2022-12-24T09:16:12;100369.97;;;6.29;100.00
67015;BME280;1033;52.560;13.374;2022-12-24T09:18:41;100376.22;;;6.36;100.00
67015;BME280;1033;52.560;13.374;2022-12-24T09:21:13;100373.53;;;6.51;100.00
67015;BME280;1033;52.560;13.374;2022-12-24T09:23:45;100382.53;;;6.43;100.00
67015;BME280;1033;52.560;13.374;2022-12-24T09:26:16;100383.06;;;6.53;100.00
67015;BME280;1033;52.560;13.374;2022-12-24T09:28:45;100396.31;;;6.55;100.00
67015;BME280;1033;52.560;13.374;2022-12-24T09:31:16;100390.22;;;6.46;100.00
67015;BME280;1033;52.560;13.374;2022-12-24T09:33:46;100385.59;;;6.40;100.00
67015;BME280;1033;52.560;13.374;2022-12-24T09:36:16;100389.66;;;6.36;100.00
67015;BME280;1033;52.560;13.374;2022-12-24T09:38:45;100407.28;;;6.39;100.00
67015;BME280;1033;52.560;13.374;2022-12-24T09:41:21;100418.28;;;6.44;100.00
67015;BME280;1033;52.560;13.374;2022-12-24T09:43:55;100418.66;;;6.55;100.00
67015;BME280;1033;52.560;13.374;2022-12-24T09:46:31;100424.69;;;6.58;100.00
67015;BME280;1033;52.560;13.374;2022-12-24T09:49:04;100424.31;;;6.46;100.00
67015;BME280;1033;52.560;13.374;2022-12-24T09:51:37;100425.34;;;6.45;100.00
67015;BME280;1033;52.560;13.374;2022-12-24T09:54:14;100434.34;;;6.37;100.00
67015;BME280;1033;52.560;13.374;2022-12-24T09:56:46;100437.19;;;6.50;100.00
67015;BME280;1033;52.560;13.374;2022-12-24T09:59:18;100431.94;;;6.42;100.00
67015;BME280;1033;52.560;13.374;2022-12-24T10:01:52;100435.53;;;6.49;100.00
67015;BME280;1033;52.560;13.374;2022-12-24T10:04:25;100439.59;;;6.60;100.00
67015;BME280;1033;52.560;13.374;2022-12-24T10:07:07;100450.91;;;6.55;100.00
67015;BME280;1033;52.560;13.374;2022-12-24T10:09:50;100455.00;;;6.66;100.00
67015;BME280;1033;52.560;13.374;2022-12-24T10:12:30;100455.44;;;6.55;100.00
67015;BME280;1033;52.560;13.374;2022-12-24T10:15:13;100452.88;;;6.62;100.00
67015;BME280;1033;52.560;13.374;2022-12-24T10:18:01;100457.28;;;6.69;100.00
67015;BME280;1033;52.560;13.374;2022-12-24T10:20:41;100466.94;;;6.64;100.00
67015;BME280;1033;52.560;13.374;2022-12-24T10:23:18;100468.88;;;6.70;100.00
67015;BME280;1033;52.560;13.374;2022-12-24T10:25:55;100461.19;;;6.81;100.00
67015;BME280;1033;52.560;13.374;2022-12-24T10:28:41;100467.00;;;6.85;100.00
67015;BME280;1033;52.560;13.374;2022-12-24T10:31:13;100488.34;;;6.86;100.00
67015;BME280;1033;52.560;13.374;2022-12-24T10:33:46;100483.16;;;6.85;100.00
67015;BME280;1033;52.560;13.374;2022-12-24T10:36:22;100485.88;;;7.21;100.00
67015;BME280;1033;52.560;13.374;2022-12-24T10:38:54;100490.19;;;7.22;100.00
67015;BME280;1033;52.560;13.374;2022-12-24T10:41:25;100493.50;;;7.38;100.00
67015;BME280;1033;52.560;13.374;2022-12-24T10:43:56;100496.50;;;7.29;100.00
67015;BME280;1033;52.560;13.374;2022-12-24T10:46:32;100499.28;;;7.57;100.00
67015;BME280;1033;52.560;13.374;2022-12-24T10:49:06;100505.75;;;7.62;100.00
67015;BME280;1033;52.560;13.374;2022-12-24T10:51:40;100500.34;;;7.41;100.00
67015;BME280;1033;52.560;13.374;2022-12-24T10:54:13;100507.91;;;7.52;100.00
67015;BME280;1033;52.560;13.374;2022-12-24T10:56:56;100506.47;;;7.50;100.00
67015;BME280;1033;52.560;13.374;2022-12-24T10:59:28;100514.28;;;7.66;100.00
67015;BME280;1033;52.560;13.374;2022-12-24T11:01:59;100515.41;;;7.57;100.00
67015;BME280;1033;52.560;13.374;2022-12-24T11:04:31;100513.00;;;7.62;100.00
67015;BME280;1033;52.560;13.374;2022-12-24T11:07:03;100524.09;;;7.73;100.00
67015;BME280;1033;52.560;13.374;2022-12-24T11:09:34;100518.00;;;7.65;100.00
67015;BME280;1033;52.560;13.374;2022-12-24T11:12:15;100522.25;;;7.74;100.00
67015;BME280;1033;52.560;13.374;2022-12-24T11:14:46;100527.50;;;7.82;100.00
67015;BME280;1033;52.560;13.374;2022-12-24T11:17:20;100522.16;;;7.67;100.00
67015;BME280;1033;52.560;13.374;2022-12-24T11:19:52;100527.38;;;7.69;100.00
67015;BME280;1033;52.560;13.374;2022-12-24T11:22:23;100523.13;;;7.60;100.00
67015;BME280;1033;52.560;13.374;2022-12-24T11:25:00;100524.94;;;7.74;100.00
67015;BME280;1033;52.560;13.374;2022-12-24T11:27:33;100529.16;;;7.62;100.00
67015;BME280;1033;52.560;13.374;2022-12-24T11:30:22;100522.94;;;7.61;100.00
67015;BME280;1033;52.560;13.374;2022-12-24T11:33:17;100535.88;;;7.72;100.00
67015;BME280;1033;52.560;13.374;2022-12-24T11:35:53;100528.78;;;7.65;100.00
67015;BME280;1033;52.560;13.374;2022-12-24T11:38:25;100539.41;;;7.52;100.00
67015;BME280;1033;52.560;13.374;2022-12-24T11:40:59;100536.97;;;7.57;100.00
67015;BME280;1033;52.560;13.374;2022-12-24T11:43:41;100536.97;;;7.57;100.00
67015;BME280;1033;52.560;13.374;2022-12-24T11:46:18;100527.88;;;7.58;100.00
67015;BME280;1033;52.560;13.374;2022-12-24T11:48:48;100527.03;;;7.57;100.00
67015;BME280;1033;52.560;13.374;2022-12-24T11:51:36;100534.16;;;7.86;100.00
67015;BME280;1033;52.560;13.374;2022-12-24T11:54:11;100537.69;;;7.86;100.00
67015;BME280;1033;52.560;13.374;2022-12-24T11:56:46;100543.13;;;7.93;100.00
67015;BME280;1033;52.560;13.374;2022-12-24T11:59:23;100550.16;;;7.94;100.00
67015;BME280;1033;52.560;13.374;2022-12-24T12:01:58;100548.13;;;7.96;100.00
67015;BME280;1033;52.560;13.374;2022-12-24T12:04:32;100550.75;;;7.90;100.00
67015;BME280;1033;52.560;13.374;2022-12-24T12:07:09;100545.50;;;8.03;100.00
67015;BME280;1033;52.560;13.374;2022-12-24T12:09:48;100554.88;;;8.07;100.00
67015;BME280;1033;52.560;13.374;2022-12-24T12:12:25;100551.84;;;7.95;100.00
67015;BME280;1033;52.560;13.374;2022-12-24T12:15:00;100558.91;;;7.96;100.00
67015;BME280;1033;52.560;13.374;2022-12-24T12:17:40;100563.84;;;7.93;100.00
67015;BME280;1033;52.560;13.374;2022-12-24T12:20:21;100565.06;;;7.90;100.00
67015;BME280;1033;52.560;13.374;2022-12-24T12:22:59;100571.72;;;7.94;100.00
67015;BME280;1033;52.560;13.374;2022-12-24T12:25:35;100570.13;;;8.00;100.00
67015;BME280;1033;52.560;13.374;2022-12-24T12:28:14;100568.66;;;7.97;100.00
67015;BME280;1033;52.560;13.374;2022-12-24T12:30:52;100570.84;;;7.87;100.00
67015;BME280;1033;52.560;13.374;2022-12-24T12:33:30;100574.31;;;8.02;100.00
67015;BME280;1033;52.560;13.374;2022-12-24T12:36:04;100581.41;;;8.10;100.00
67015;BME280;1033;52.560;13.374;2022-12-24T12:38:38;100580.22;;;8.12;100.00
67015;BME280;1033;52.560;13.374;2022-12-24T12:41:19;100586.63;;;8.33;100.00
67015;BME280;1033;52.560;13.374;2022-12-24T12:44:29;100590.84;;;8.20;100.00
67015;BME280;1033;52.560;13.374;2022-12-24T12:47:15;100600.97;;;8.18;100.00
67015;BME280;1033;52.560;13.374;2022-12-24T12:49:57;100592.97;;;8.04;100.00
67015;BME280;1033;52.560;13.374;2022-12-24T12:52:45;100592.78;;;8.05;100.00
67015;BME280;1033;52.560;13.374;2022-12-24T12:55:26;100591.50;;;8.22;100.00
67015;BME280;1033;52.560;13.374;2022-12-24T12:58:02;100592.03;;;8.33;100.00
67015;BME280;1033;52.560;13.374;2022-12-24T13:00:38;100596.44;;;8.40;100.00
67015;BME280;1033;52.560;13.374;2022-12-24T13:06:33;100594.56;;;8.41;100.00
67015;BME280;1033;52.560;13.374;2022-12-24T13:09:21;100598.28;;;8.40;100.00
67015;BME280;1033;52.560;13.374;2022-12-24T13:18:41;100597.63;;;8.59;100.00
67015;BME280;1033;52.560;13.374;2022-12-24T13:21:17;100601.22;;;8.72;100.00
67015;BME280;1033;52.560;13.374;2022-12-24T13:23:48;100606.34;;;8.61;100.00
67015;BME280;1033;52.560;13.374;2022-12-24T13:26:17;100605.94;;;8.64;100.00
67015;BME280;1033;52.560;13.374;2022-12-24T13:28:48;100608.34;;;8.52;100.00
67015;BME280;1033;52.560;13.374;2022-12-24T13:31:26;100602.91;;;8.46;100.00
67015;BME280;1033;52.560;13.374;2022-12-24T13:34:01;100612.78;;;8.60;100.00